Dades meteorològiques de l'aviació METAR     EFOU Oulu Airport
Temperatura
20°C Temperatura
16°C Rosada
78% Humitat



Vent
0 M/S
1 MPH
2 KM/H
1 NUS



Tranquil
N
Condicions actuals

Sense núvols Sense núvols
Pressió 1019.92 (hPa) - 30.12 (inHg)
Visibilitat 6.2 (milla) - 10 (km)
Aeroport
Codi aeroport EFOU

Ubicació: Oulu Airport
Distància: 83 (km)

Metar:
EFOU 302150Z AUTO VRB01KT CAVOK 20/16 Q1020

Temps: 01-07-2022 00:50 EEST